Time;durP1;ratioP1;P1;durP2;ratioP2;P2;SDS_P1;SDS_P2;PMS_P1;PMS_P2;Temp;Humidity;BMP_temperature;BMP_pressure;BME280_temperature;BME280_humidity;BME280_pressure;Samples;Min_cycle;Max_cycle;Signal;HPM_P1;HPM_P2
2024/02/25 00:02:03;;;;;;;24.57;12.20;;;;;;;6.65;100.00;100156.05;5155874;55;1138778;-79
2024/02/25 00:07:08;;;;;;;15.70;8.55;;;;;;;6.65;100.00;100156.05;5083035;56;1143124;-78
2024/02/25 00:12:15;;;;;;;22.23;9.47;;;;;;;6.68;100.00;100148.44;5127225;55;1140929;-77
2024/02/25 00:17:20;;;;;;;31.53;12.87;;;;;;;6.60;100.00;100148.09;5142589;55;1140702;-79
2024/02/25 00:22:28;;;;;;;32.93;12.70;;;;;;;6.45;100.00;100155.67;5127412;55;1140642;-81
2024/02/25 00:27:33;;;;;;;22.63;9.87;;;;;;;6.17;100.00;100154.88;5134275;55;1140833;-80
2024/02/25 00:32:39;;;;;;;20.50;8.80;;;;;;;5.97;100.00;100159.25;5154173;55;1138918;-81
2024/02/25 00:37:49;;;;;;;19.33;8.87;;;;;;;5.80;100.00;100147.67;5114367;55;1138552;-80
2024/02/25 00:42:54;;;;;;;23.77;9.80;;;;;;;5.73;100.00;100146.36;5114079;55;1138765;-81
2024/02/25 00:48:00;;;;;;;20.03;10.07;;;;;;;5.80;100.00;100147.67;5133898;55;1140837;-80
2024/02/25 00:53:05;;;;;;;18.73;9.40;;;;;;;5.85;100.00;100146.42;5113460;55;1142606;-77
2024/02/25 00:58:11;;;;;;;24.73;10.93;;;;;;;5.87;100.00;100150.26;5113923;55;1138809;-77
2024/02/25 01:03:17;;;;;;;28.27;10.03;;;;;;;5.75;100.00;100146.64;5094978;55;1141270;-77
2024/02/25 01:08:23;;;;;;;24.77;11.47;;;;;;;5.53;100.00;100149.77;5100366;55;1141236;-78
2024/02/25 01:13:28;;;;;;;21.73;9.00;;;;;;;5.30;100.00;100149.05;5103266;55;1140709;-77
2024/02/25 01:18:35;;;;;;;15.57;8.13;;;;;;;5.15;100.00;100146.06;5103658;56;1138958;-78
2024/02/25 01:23:41;;;;;;;19.67;9.13;;;;;;;5.08;100.00;100146.89;5123753;55;1138613;-80
2024/02/25 01:28:47;;;;;;;22.23;9.93;;;;;;;5.06;100.00;100143.52;5103186;54;1140872;-81
2024/02/25 01:33:52;;;;;;;21.02;9.43;;;;;;;5.05;100.00;100141.83;5014084;55;1138547;-77
2024/02/25 01:38:59;;;;;;;27.40;10.67;;;;;;;4.97;100.00;100144.09;5097640;55;1138593;-81
2024/02/25 01:44:05;;;;;;;24.23;9.23;;;;;;;4.89;100.00;100142.37;5101879;56;1140759;-80
2024/02/25 01:49:10;;;;;;;21.73;9.77;;;;;;;4.76;100.00;100142.73;5103057;56;1138746;-79
2024/02/25 01:54:17;;;;;;;30.17;12.53;;;;;;;4.49;100.00;100168.79;5103017;56;1138764;-78
2024/02/25 01:59:22;;;;;;;28.53;12.57;;;;;;;4.19;100.00;100160.45;5128043;55;1142983;-79
2024/02/25 02:04:28;;;;;;;32.73;13.55;;;;;;;4.30;100.00;100161.14;5075638;55;1142962;-78
2024/02/25 02:09:34;;;;;;;35.88;15.00;;;;;;;4.50;100.00;100163.93;5093963;56;1142678;-77
2024/02/25 02:14:40;;;;;;;37.30;14.05;;;;;;;4.55;100.00;100157.97;5123693;55;1140732;-78
2024/02/25 02:19:48;;;;;;;35.47;16.10;;;;;;;4.56;100.00;100149.19;5103377;55;1140890;-79
2024/02/25 02:24:55;;;;;;;31.07;14.97;;;;;;;4.51;100.00;100147.29;5103168;55;1141033;-77
2024/02/25 02:30:01;;;;;;;35.03;14.30;;;;;;;4.40;100.00;100143.99;5123372;55;1140879;-77
2024/02/25 02:35:08;;;;;;;26.00;13.23;;;;;;;4.42;100.00;100143.45;5103154;56;1142935;-78
2024/02/25 02:40:14;;;;;;;26.30;12.60;;;;;;;4.42;100.00;100141.29;5103374;55;1140761;-81
2024/02/25 02:45:19;;;;;;;32.90;12.17;;;;;;;4.34;100.00;100143.03;5103499;55;1141327;-81
2024/02/25 02:50:25;;;;;;;24.40;10.00;;;;;;;4.24;100.00;100147.12;5122524;55;1140578;-77
2024/02/25 02:55:31;;;;;;;27.40;9.83;;;;;;;4.14;100.00;100151.17;5103927;55;1140892;-79
2024/02/25 03:00:36;;;;;;;22.90;10.33;;;;;;;4.03;100.00;100141.78;4949773;57;1138787;-78
2024/02/25 03:05:43;;;;;;;21.50;11.17;;;;;;;3.99;100.00;100141.11;5186009;55;1142910;-80
2024/02/25 03:10:48;;;;;;;19.30;10.87;;;;;;;3.96;100.00;100131.31;5169726;54;1140553;-78
2024/02/25 03:15:54;;;;;;;34.13;17.70;;;;;;;3.90;100.00;100129.87;5168812;55;1140662;-78
2024/02/25 03:21:00;;;;;;;25.77;13.73;;;;;;;3.84;100.00;100129.73;5158564;55;1140804;-81
2024/02/25 03:26:05;;;;;;;20.23;12.33;;;;;;;3.81;100.00;100140.86;5114604;56;1140541;-77
2024/02/25 03:31:11;;;;;;;21.65;10.40;;;;;;;3.85;100.00;100152.35;5098151;55;1140736;-77
2024/02/25 03:36:17;;;;;;;23.98;11.08;;;;;;;3.91;100.00;100156.41;5084163;56;1140953;-80
2024/02/25 03:41:23;;;;;;;29.60;13.32;;;;;;;3.97;100.00;100159.16;5118877;55;1143046;-80
2024/02/25 03:46:29;;;;;;;29.45;13.78;;;;;;;3.96;100.00;100160.09;5132439;55;1140906;-80
2024/02/25 03:51:41;;;;;;;41.17;17.80;;;;;;;3.86;100.00;100158.42;5124764;55;1140892;-79
2024/02/25 03:56:47;;;;;;;37.90;17.93;;;;;;;3.75;100.00;100148.57;5120931;54;1140764;-77
2024/02/25 04:01:53;;;;;;;40.03;19.10;;;;;;;3.70;100.00;100147.97;5193950;54;1140571;-77
2024/02/25 04:06:58;;;;;;;40.73;18.67;;;;;;;3.65;100.00;100143.48;5133693;55;1140645;-79
2024/02/25 04:12:04;;;;;;;44.60;21.50;;;;;;;3.62;100.00;100127.11;5154153;55;1143116;-80
2024/02/25 04:17:10;;;;;;;44.13;21.97;;;;;;;3.61;100.00;100123.65;5133884;55;1140689;-76
2024/02/25 04:22:16;;;;;;;41.68;21.00;;;;;;;3.57;100.00;100119.51;5137198;55;1140681;-78
2024/02/25 04:27:21;;;;;;;39.83;20.13;;;;;;;3.56;100.00;100109.13;5207573;55;1140868;-75
2024/02/25 04:32:27;;;;;;;42.87;20.40;;;;;;;3.55;100.00;100099.14;5200668;55;1141112;-78
2024/02/25 04:37:33;;;;;;;40.65;20.30;;;;;;;3.56;100.00;100092.98;5200417;55;1140913;-77
2024/02/25 04:42:38;;;;;;;50.43;22.90;;;;;;;3.59;100.00;100099.81;5220705;55;1143192;-75
2024/02/25 04:47:44;;;;;;;50.83;25.47;;;;;;;3.61;100.00;100096.66;5200610;55;1140826;-79
2024/02/25 04:52:49;;;;;;;43.30;21.30;;;;;;;3.61;100.00;100111.88;5180454;55;1140803;-77
2024/02/25 04:57:55;;;;;;;50.87;24.20;;;;;;;3.59;100.00;100111.13;5128382;55;1140592;-76
2024/02/25 05:03:01;;;;;;;44.83;22.33;;;;;;;3.58;100.00;100116.43;5096110;55;1140985;-77
2024/02/25 05:08:07;;;;;;;47.70;23.00;;;;;;;3.57;100.00;100122.13;5049257;56;1142929;-75
2024/02/25 05:13:12;;;;;;;51.00;24.93;;;;;;;3.56;100.00;100120.90;5049516;56;1140975;-79
2024/02/25 05:18:18;;;;;;;49.20;23.90;;;;;;;3.52;100.00;100130.21;5068866;56;1140929;-76
2024/02/25 05:23:23;;;;;;;46.00;23.27;;;;;;;3.44;100.00;100128.95;5049441;56;1140639;-77
2024/02/25 05:28:29;;;;;;;51.10;26.13;;;;;;;3.40;100.00;100133.50;5050457;56;1141141;-79
2024/02/25 05:33:35;;;;;;;51.45;23.25;;;;;;;3.41;100.00;100129.96;5068635;56;1140959;-75
2024/02/25 05:38:40;;;;;;;49.15;22.93;;;;;;;3.44;100.00;100127.64;5049014;56;1140986;-77
2024/02/25 05:43:46;;;;;;;51.40;26.33;;;;;;;3.53;100.00;100125.83;5048935;56;1142871;-75
2024/02/25 05:48:52;;;;;;;54.00;27.17;;;;;;;3.62;100.00;100128.42;5073448;55;1142863;-76
2024/02/25 05:53:57;;;;;;;56.30;26.57;;;;;;;3.66;100.00;100122.09;5099915;55;1140873;-77
2024/02/25 05:59:03;;;;;;;51.97;26.30;;;;;;;3.55;100.00;100117.44;5061397;55;1140847;-76
2024/02/25 06:04:09;;;;;;;54.38;27.95;;;;;;;3.42;100.00;100122.50;5148787;55;1140686;-76
2024/02/25 06:09:15;;;;;;;50.30;23.63;;;;;;;3.38;100.00;100120.97;5135597;56;1141311;-77
2024/02/25 06:14:21;;;;;;;50.27;25.47;;;;;;;3.41;100.00;100119.50;5144526;55;1140912;-77
2024/02/25 06:19:27;;;;;;;51.50;27.05;;;;;;;3.46;100.00;100117.49;5096738;55;1142801;-76
2024/02/25 06:24:32;;;;;;;49.77;27.07;;;;;;;3.48;100.00;100110.88;5160036;55;1140928;-77
2024/02/25 06:29:38;;;;;;;48.02;26.52;;;;;;;3.44;100.00;100112.80;5163113;55;1140558;-77
2024/02/25 06:34:43;;;;;;;48.05;25.65;;;;;;;3.44;100.00;100116.73;5083451;55;1140865;-78
2024/02/25 06:39:49;;;;;;;59.60;31.30;;;;;;;3.47;100.00;100108.73;5068650;56;1142688;-76
2024/02/25 06:44:54;;;;;;;55.20;30.27;;;;;;;3.58;100.00;100110.73;5058393;56;1140804;-75
2024/02/25 06:50:01;;;;;;;56.20;28.90;;;;;;;3.64;100.00;100115.64;5101064;55;1140574;-78
2024/02/25 06:55:09;;;;;;;49.30;24.60;;;;;;;3.69;100.00;100120.13;5044404;56;1140898;-74
2024/02/25 07:00:15;;;;;;;40.13;21.87;;;;;;;3.77;100.00;100117.95;4942078;58;1142901;-76
2024/02/25 07:05:21;;;;;;;46.70;24.85;;;;;;;4.00;100.00;100106.62;4961007;57;1143013;-76
2024/02/25 07:10:27;;;;;;;61.03;30.30;;;;;;;4.18;100.00;100106.89;5067473;55;1140624;-77
2024/02/25 07:15:33;;;;;;;45.50;26.80;;;;;;;4.37;100.00;100097.51;5089786;56;1140943;-78
2024/02/25 07:20:39;;;;;;;47.07;23.87;;;;;;;4.56;100.00;100100.27;5113614;56;1140606;-78
2024/02/25 07:25:45;;;;;;;38.87;22.87;;;;;;;4.82;100.00;100105.24;5091884;56;1142745;-75
2024/02/25 07:30:50;;;;;;;42.97;23.63;;;;;;;5.10;100.00;100097.00;5034618;56;1142848;-76
2024/02/25 07:35:56;;;;;;;41.97;23.30;;;;;;;5.29;100.00;100088.37;4998605;56;1140668;-76
2024/02/25 07:41:02;;;;;;;42.70;21.67;;;;;;;5.43;100.00;100087.50;5117438;55;1140756;-79
2024/02/25 07:46:08;;;;;;;40.53;22.20;;;;;;;5.58;100.00;100097.02;5128761;55;1142759;-79
2024/02/25 07:51:14;;;;;;;40.30;23.43;;;;;;;5.86;100.00;100090.37;5175873;54;1142944;-78
2024/02/25 07:56:23;;;;;;;44.77;23.40;;;;;;;6.02;100.00;100083.68;5112795;55;1140696;-77
2024/02/25 08:01:28;;;;;;;40.73;22.17;;;;;;;6.18;100.00;100078.25;5145541;55;1140733;-79
2024/02/25 08:06:35;;;;;;;45.58;26.70;;;;;;;6.39;100.00;100070.27;5113917;55;1140914;-76
2024/02/25 08:11:40;;;;;;;40.03;23.13;;;;;;;6.57;100.00;100072.94;5113509;55;1142928;-77
2024/02/25 08:16:46;;;;;;;44.90;23.00;;;;;;;6.73;100.00;100074.52;5133445;55;1143146;-81
2024/02/25 08:21:52;;;;;;;51.37;27.03;;;;;;;6.81;100.00;100070.43;5114999;55;1140796;-79
2024/02/25 08:26:57;;;;;;;36.17;22.13;;;;;;;6.89;100.00;100069.41;5171635;55;1140550;-78
2024/02/25 08:32:03;;;;;;;39.93;23.77;;;;;;;7.02;100.00;100061.06;5210467;55;1142900;-78
2024/02/25 08:37:08;;;;;;;42.53;25.20;;;;;;;7.17;100.00;100060.45;5180057;55;1143004;-78
2024/02/25 08:42:14;;;;;;;64.30;34.77;;;;;;;7.20;100.00;100047.53;5185081;55;1140937;-77
2024/02/25 08:47:20;;;;;;;46.77;27.57;;;;;;;7.23;100.00;100038.12;5190646;55;1140824;-78
2024/02/25 08:52:26;;;;;;;41.17;22.70;;;;;;;7.25;100.00;100027.86;5213910;55;1142967;-78
2024/02/25 08:57:32;;;;;;;37.00;23.17;;;;;;;7.27;100.00;100019.39;5198277;55;1142797;-77
2024/02/25 09:02:38;;;;;;;50.10;29.48;;;;;;;7.35;100.00;100025.39;5194950;54;1142810;-77
2024/02/25 09:07:44;;;;;;;38.67;22.07;;;;;;;7.33;100.00;100020.24;5162547;55;1140905;-80
2024/02/25 09:12:50;;;;;;;37.37;22.17;;;;;;;7.40;100.00;100020.66;5141766;55;1142757;-78
2024/02/25 09:17:57;;;;;;;40.73;21.37;;;;;;;7.52;100.00;100004.44;5141885;55;1142942;-79
2024/02/25 09:23:07;;;;;;;38.77;21.50;;;;;;;7.59;100.00;99994.69;5161402;55;1142932;-78
2024/02/25 09:28:18;;;;;;;45.60;24.10;;;;;;;7.64;100.00;99984.64;5141664;55;1140822;-77
2024/02/25 09:33:20;;;;;;;46.40;26.27;;;;;;;7.68;100.00;99965.52;5134588;54;1140913;-78
2024/02/25 09:38:29;;;;;;;48.23;25.77;;;;;;;7.74;100.00;99967.70;5088976;55;1138751;-79
2024/02/25 09:43:34;;;;;;;42.53;23.50;;;;;;;7.88;100.00;99966.67;5143852;56;1140890;-80
2024/02/25 09:48:40;;;;;;;36.60;21.05;;;;;;;7.97;100.00;99959.38;5181646;55;1140889;-79
2024/02/25 09:53:49;;;;;;;42.03;23.50;;;;;;;7.97;100.00;99962.02;5251860;55;1140941;-77
2024/02/25 09:58:55;;;;;;;38.83;22.07;;;;;;;7.96;100.00;99958.54;5186157;54;1141056;-78
2024/02/25 10:04:00;;;;;;;43.30;22.43;;;;;;;8.00;100.00;99956.52;5136208;55;1140959;-79
2024/02/25 10:09:11;;;;;;;35.33;22.17;;;;;;;8.06;100.00;99956.91;5210487;55;1140708;-77
2024/02/25 10:14:18;;;;;;;38.50;21.70;;;;;;;8.08;100.00;99937.05;5216608;55;1140720;-78
2024/02/25 10:19:23;;;;;;;35.25;21.60;;;;;;;8.10;100.00;99940.37;5216859;55;1140639;-78
2024/02/25 10:24:31;;;;;;;39.50;21.57;;;;;;;8.09;100.00;99936.09;5207872;55;1140731;-77
2024/02/25 10:29:54;;;;;;;33.83;19.73;;;;;;;8.12;100.00;99931.87;5163735;54;1140739;-77
2024/02/25 10:35:01;;;;;;;36.17;20.40;;;;;;;8.17;100.00;99917.89;5209525;55;1140882;-77
2024/02/25 10:40:10;;;;;;;35.80;19.90;;;;;;;8.24;100.00;99916.95;5159507;55;1140952;-79
2024/02/25 10:45:16;;;;;;;32.47;18.50;;;;;;;8.29;100.00;99912.98;5211563;55;1140944;-78
2024/02/25 10:50:23;;;;;;;35.92;18.27;;;;;;;8.40;100.00;99915.64;5216462;55;1140787;-77
2024/02/25 10:55:29;;;;;;;85.57;49.23;;;;;;;8.53;100.00;99912.91;5199162;55;1141018;-78
2024/02/25 11:00:35;;;;;;;33.97;18.87;;;;;;;8.63;100.00;99896.71;5175464;54;1140860;-78
2024/02/25 11:05:42;;;;;;;27.90;17.33;;;;;;;8.71;100.00;99888.17;5137287;55;1140840;-78
2024/02/25 11:10:48;;;;;;;29.53;16.70;;;;;;;8.71;100.00;99888.17;5154143;55;1140748;-78
2024/02/25 11:15:57;;;;;;;25.87;15.43;;;;;;;8.83;100.00;99898.25;5155841;54;1140745;-78
2024/02/25 11:21:09;;;;;;;27.57;16.67;;;;;;;8.90;100.00;99892.34;5128429;55;1140858;-78
2024/02/25 11:26:37;;;;;;;28.37;15.57;;;;;;;8.98;100.00;99885.98;5122025;55;1140833;-79
2024/02/25 11:31:51;;;;;;;33.75;17.27;;;;;;;8.99;100.00;99875.79;5129733;55;1140641;-78
2024/02/25 11:36:58;;;;;;;25.73;14.97;;;;;;;9.01;100.00;99875.16;5133080;55;1140681;-77
2024/02/25 11:42:05;;;;;;;27.77;14.17;;;;;;;9.04;100.00;99878.03;5149309;55;1141009;-79
2024/02/25 11:47:12;;;;;;;25.67;14.60;;;;;;;9.07;100.00;99873.83;5145535;55;1141117;-79
2024/02/25 11:52:18;;;;;;;20.23;12.43;;;;;;;9.20;100.00;99873.66;5164178;55;1140517;-77
2024/02/25 11:57:25;;;;;;;30.43;16.23;;;;;;;9.28;100.00;99873.41;5128533;55;1140931;-78
2024/02/25 12:02:31;;;;;;;21.87;12.40;;;;;;;9.41;100.00;99864.83;5121459;55;1140710;-79
2024/02/25 12:07:37;;;;;;;19.98;11.12;;;;;;;9.45;100.00;99859.66;5148368;55;1140751;-78
2024/02/25 12:12:42;;;;;;;26.57;15.28;;;;;;;9.46;100.00;99863.13;5134887;55;1141069;-78
2024/02/25 12:17:48;;;;;;;19.43;11.80;;;;;;;9.47;100.00;99855.57;5153814;55;1140635;-78
2024/02/25 12:22:55;;;;;;;30.03;14.97;;;;;;;9.52;100.00;99849.40;5170499;54;1140776;-78
2024/02/25 12:28:14;;;;;;;27.73;16.00;;;;;;;9.59;100.00;99844.45;5152838;54;1140849;-78
2024/02/25 12:33:20;;;;;;;31.20;17.20;;;;;;;9.64;100.00;99843.08;5125777;55;1141002;-78
2024/02/25 12:38:26;;;;;;;35.67;17.03;;;;;;;9.70;100.00;99841.26;5184500;55;1141043;-79
2024/02/25 12:43:32;;;;;;;27.93;16.90;;;;;;;9.74;100.00;99836.56;5128185;56;1141036;-78
2024/02/25 12:48:38;;;;;;;25.77;15.78;;;;;;;9.75;100.00;99832.95;5113740;55;1141221;-79
2024/02/25 12:53:45;;;;;;;25.15;14.53;;;;;;;9.76;100.00;99839.91;5193617;55;1140946;-79
2024/02/25 12:58:50;;;;;;;27.00;15.47;;;;;;;9.76;100.00;99833.31;5207275;55;1140737;-78
2024/02/25 13:03:56;;;;;;;31.33;14.77;;;;;;;9.74;100.00;99826.00;5106744;55;1140551;-79
2024/02/25 13:09:05;;;;;;;27.87;14.63;;;;;;;9.72;100.00;99826.13;5093538;55;1140825;-80
2024/02/25 13:14:11;;;;;;;28.80;16.28;;;;;;;9.76;100.00;99824.06;5097679;56;1141088;-83
2024/02/25 13:19:17;;;;;;;29.83;16.10;;;;;;;9.84;100.00;99805.75;5121874;55;1141068;-77
2024/02/25 13:24:22;;;;;;;27.93;17.43;;;;;;;9.96;100.00;99794.12;5259329;55;1140876;-82
2024/02/25 13:29:28;;;;;;;33.07;18.10;;;;;;;10.06;100.00;99795.50;5205824;54;1141571;-80
2024/02/25 13:34:33;;;;;;;28.27;17.73;;;;;;;10.13;100.00;99796.14;5175034;56;1143134;-81
2024/02/25 13:39:43;;;;;;;33.13;18.13;;;;;;;10.18;100.00;99793.10;5163765;55;1143054;-78
2024/02/25 13:44:49;;;;;;;41.87;21.37;;;;;;;10.21;100.00;99800.80;5176622;55;1142826;-77
2024/02/25 13:49:55;;;;;;;44.73;17.93;;;;;;;10.21;100.00;99798.16;5172052;55;1143035;-82
2024/02/25 13:55:00;;;;;;;28.93;16.87;;;;;;;10.23;100.00;99791.74;5227207;55;1143136;-81
2024/02/25 14:00:12;;;;;;;32.50;19.97;;;;;;;10.29;100.00;99785.09;5212675;54;1143077;-77
2024/02/25 14:05:20;;;;;;;30.40;17.75;;;;;;;10.31;100.00;99781.83;5126383;56;1142862;-79
2024/02/25 14:10:26;;;;;;;40.80;19.87;;;;;;;10.31;100.00;99780.51;5131213;56;1143020;-82
2024/02/25 14:15:31;;;;;;;40.53;23.20;;;;;;;10.32;100.00;99778.70;5102342;54;1142881;-81
2024/02/25 14:20:38;;;;;;;48.83;28.77;;;;;;;10.29;100.00;99780.29;5126736;55;1142575;-82
2024/02/25 14:25:44;;;;;;;32.65;18.20;;;;;;;10.28;100.00;99780.77;5219622;55;1152156;-79
2024/02/25 14:30:50;;;;;;;34.25;18.12;;;;;;;10.31;100.00;99774.39;5081775;56;1142936;-80
2024/02/25 14:35:59;;;;;;;39.37;20.30;;;;;;;10.28;100.00;99778.61;5213070;54;1142990;-79
2024/02/25 14:41:03;;;;;;;29.03;18.03;;;;;;;10.27;100.00;99773.81;5207743;54;1142589;-79
2024/02/25 14:46:11;;;;;;;40.40;23.23;;;;;;;10.26;100.00;99773.46;5121880;55;1143214;-78
2024/02/25 14:51:17;;;;;;;36.63;18.87;;;;;;;10.25;100.00;99764.34;5130092;54;1142761;-80
2024/02/25 14:56:22;;;;;;;46.73;26.82;;;;;;;10.21;100.00;99765.96;5138560;55;1143020;-80
2024/02/25 15:01:28;;;;;;;35.73;18.77;;;;;;;10.19;100.00;99772.34;5154944;55;1143179;-77
2024/02/25 15:06:34;;;;;;;36.67;18.70;;;;;;;10.20;100.00;99780.14;5113567;55;1142915;-78
2024/02/25 15:11:40;;;;;;;34.80;17.23;;;;;;;10.20;100.00;99781.47;5071221;55;1143102;-78
2024/02/25 15:16:46;;;;;;;33.30;19.13;;;;;;;10.18;100.00;99787.81;5088993;55;1142997;-80
2024/02/25 15:21:51;;;;;;;34.70;19.37;;;;;;;10.14;100.00;99782.44;5072333;55;1143141;-78
2024/02/25 15:27:00;;;;;;;38.30;20.65;;;;;;;10.09;100.00;99785.95;5080886;55;1142958;-78
2024/02/25 15:32:05;;;;;;;93.97;39.07;;;;;;;10.04;100.00;99781.09;5133970;55;1142935;-80
2024/02/25 15:37:11;;;;;;;79.53;38.03;;;;;;;9.98;100.00;99775.02;5103666;55;1142966;-78
2024/02/25 15:42:18;;;;;;;100.63;44.03;;;;;;;9.95;100.00;99773.11;5070041;55;1141138;-79
2024/02/25 15:47:27;;;;;;;199.50;86.53;;;;;;;9.91;100.00;99775.70;5073700;55;1143040;-78
2024/02/25 15:52:33;;;;;;;140.23;63.60;;;;;;;9.87;100.00;99771.99;5091482;55;1142913;-80
2024/02/25 15:57:39;;;;;;;65.90;36.17;;;;;;;9.83;100.00;99773.22;5061710;55;1142962;-81
2024/02/25 16:02:46;;;;;;;127.70;59.97;;;;;;;9.80;100.00;99768.67;5081831;55;1140974;-79
2024/02/25 16:07:51;;;;;;;127.63;60.43;;;;;;;9.84;100.00;99768.29;5083615;55;1142889;-78
2024/02/25 16:12:57;;;;;;;108.60;53.70;;;;;;;9.93;100.00;99760.03;5108504;55;1143012;-81
2024/02/25 16:18:03;;;;;;;98.73;47.03;;;;;;;9.99;100.00;99763.97;5107340;55;1143015;-78
2024/02/25 16:23:10;;;;;;;81.47;40.27;;;;;;;9.93;100.00;99758.72;5109882;55;1140961;-80
2024/02/25 16:28:16;;;;;;;87.40;41.53;;;;;;;9.85;100.00;99760.72;5193336;55;1140727;-77
2024/02/25 16:33:21;;;;;;;74.58;37.48;;;;;;;9.80;100.00;99760.75;5143282;56;1140767;-80
2024/02/25 16:38:27;;;;;;;86.37;40.30;;;;;;;9.76;100.00;99772.58;5081224;56;1140685;-78
2024/02/25 16:43:33;;;;;;;67.40;35.23;;;;;;;9.71;100.00;99766.84;5053764;57;1140981;-77
2024/02/25 16:48:39;;;;;;;66.70;33.80;;;;;;;9.66;100.00;99764.59;5124947;55;1141078;-80
2024/02/25 16:53:44;;;;;;;59.80;30.93;;;;;;;9.63;100.00;99758.24;5174237;56;1140589;-81
2024/02/25 16:58:50;;;;;;;65.07;33.17;;;;;;;9.58;100.00;99764.42;5132826;56;1140644;-78
2024/02/25 17:03:56;;;;;;;79.60;38.55;;;;;;;9.52;100.00;99768.89;5119690;55;1140608;-81
2024/02/25 17:09:02;;;;;;;131.95;60.83;;;;;;;9.39;100.00;99770.91;5182599;55;1140990;-80
2024/02/25 17:14:07;;;;;;;222.60;109.57;;;;;;;9.23;100.00;99767.40;5221160;55;1143213;-78
2024/02/25 17:19:13;;;;;;;284.60;144.27;;;;;;;9.16;100.00;99767.09;5208578;55;1144967;-78
2024/02/25 17:24:19;;;;;;;319.95;164.67;;;;;;;9.07;100.00;99765.69;5143886;55;1145431;-77
2024/02/25 17:29:25;;;;;;;238.43;128.27;;;;;;;9.01;100.00;99763.58;5194800;55;1145008;-79
2024/02/25 17:34:32;;;;;;;170.07;94.43;;;;;;;8.94;100.00;99759.28;5177826;55;1144934;-78
2024/02/25 17:39:37;;;;;;;205.73;102.20;;;;;;;8.88;100.00;99750.55;5165749;55;1142767;-80
2024/02/25 17:44:43;;;;;;;123.80;66.30;;;;;;;8.79;100.00;99755.27;5191107;55;1145066;-79
2024/02/25 17:49:50;;;;;;;112.20;56.75;;;;;;;8.71;100.00;99748.45;5174660;55;1142754;-79
2024/02/25 17:54:55;;;;;;;150.90;74.37;;;;;;;8.66;100.00;99748.02;5147729;55;1142774;-77
2024/02/25 18:00:02;;;;;;;142.53;70.85;;;;;;;8.60;100.00;99734.84;5182995;55;1143022;-82
2024/02/25 18:05:10;;;;;;;119.23;57.13;;;;;;;8.58;100.00;99735.45;5166566;55;1143149;-77
2024/02/25 18:10:18;;;;;;;101.83;50.43;;;;;;;8.54;100.00;99730.58;5179952;55;1142776;-80
2024/02/25 18:15:27;;;;;;;95.30;46.45;;;;;;;8.52;100.00;99724.11;5172739;56;1143023;-79
2024/02/25 18:20:31;;;;;;;97.40;50.03;;;;;;;8.56;100.00;99723.36;5173452;56;1140649;-79
2024/02/25 18:25:36;;;;;;;114.60;57.83;;;;;;;8.57;100.00;99720.59;5152795;56;1140984;-82
2024/02/25 18:30:42;;;;;;;104.73;54.53;;;;;;;8.62;100.00;99718.91;4992054;56;1143031;-77
2024/02/25 18:35:48;;;;;;;109.80;53.60;;;;;;;8.60;100.00;99722.98;5050253;57;1142788;-83
2024/02/25 18:40:54;;;;;;;104.77;54.07;;;;;;;8.50;100.00;99714.17;5046942;56;1142877;-78
2024/02/25 18:45:59;;;;;;;136.33;74.73;;;;;;;8.39;100.00;99712.91;5048781;57;1142741;-77
2024/02/25 18:51:09;;;;;;;183.93;90.35;;;;;;;8.33;100.00;99702.38;5071935;56;1143231;-78
2024/02/25 18:56:13;;;;;;;128.00;70.30;;;;;;;8.28;100.00;99707.61;5183573;55;1142901;-82
2024/02/25 19:01:19;;;;;;;153.72;74.50;;;;;;;8.00;100.00;99711.16;5043225;55;1142959;-79
2024/02/25 19:06:26;;;;;;;156.30;73.53;;;;;;;7.83;100.00;99708.18;5103468;55;1142954;-83
2024/02/25 19:11:34;;;;;;;153.63;65.20;;;;;;;7.83;100.00;99706.86;5083041;56;1143044;-87
2024/02/25 19:16:43;;;;;;;100.47;44.53;;;;;;;7.76;100.00;99717.05;5110634;56;1142904;-79
2024/02/25 19:21:51;;;;;;;96.57;49.73;;;;;;;7.67;100.00;99701.49;5109590;56;1143400;-75
2024/02/25 19:26:57;;;;;;;151.85;64.75;;;;;;;7.62;100.00;99702.35;5034326;56;1140668;-78
2024/02/25 19:32:06;;;;;;;94.28;48.50;;;;;;;7.66;100.00;99702.45;5092492;55;1143112;-85
2024/02/25 19:37:17;;;;;;;135.33;74.07;;;;;;;7.62;100.00;99694.94;5048942;55;1140823;-78
2024/02/25 19:42:24;;;;;;;120.20;66.77;;;;;;;7.46;100.00;99696.61;5122998;55;1143095;-84
2024/02/25 19:47:32;;;;;;;142.67;77.53;;;;;;;7.44;100.00;99691.95;5103026;55;1142707;-78
2024/02/25 19:52:42;;;;;;;109.50;61.23;;;;;;;7.43;100.00;99695.53;5116681;55;1143164;-78
2024/02/25 19:57:49;;;;;;;99.60;56.77;;;;;;;7.36;100.00;99682.48;5155986;55;1142894;-76
2024/02/25 20:02:58;;;;;;;76.33;42.03;;;;;;;7.27;100.00;99678.78;5133726;55;1140912;-80
2024/02/25 20:08:05;;;;;;;89.97;47.50;;;;;;;7.18;100.00;99687.36;5120465;55;1140860;-82
2024/02/25 20:13:13;;;;;;;84.67;44.95;;;;;;;7.08;100.00;99676.36;5108553;55;1141024;-78
2024/02/25 20:18:22;;;;;;;74.93;37.30;;;;;;;6.95;100.00;99673.83;5149879;55;1140866;-83
2024/02/25 20:23:34;;;;;;;67.07;38.63;;;;;;;6.94;100.00;99680.05;5103125;55;1141021;-80
2024/02/25 20:28:40;;;;;;;60.87;34.43;;;;;;;6.90;100.00;99679.43;5122475;55;1140587;-82
2024/02/25 20:33:48;;;;;;;59.27;33.50;;;;;;;6.85;100.00;99683.38;5151646;55;1140843;-83
2024/02/25 20:39:03;;;;;;;84.37;47.70;;;;;;;6.79;100.00;99679.89;5172471;55;1138697;-83
2024/02/25 20:44:12;;;;;;;82.27;40.35;;;;;;;6.72;100.00;99682.63;5157542;55;1138377;-83
2024/02/25 20:49:18;;;;;;;82.87;40.93;;;;;;;6.62;100.00;99680.67;5150279;55;1140051;-83
2024/02/25 20:54:26;;;;;;;70.43;35.20;;;;;;;6.48;100.00;99682.17;5140340;55;1140527;-82
2024/02/25 20:59:32;;;;;;;110.23;44.70;;;;;;;6.45;100.00;99677.62;5189234;54;1140697;-79
2024/02/25 21:04:38;;;;;;;97.03;40.60;;;;;;;6.37;100.00;99684.77;5123225;55;1143191;-81
2024/02/25 21:09:44;;;;;;;141.67;53.20;;;;;;;6.34;100.00;99679.73;5133589;56;1138718;-81
2024/02/25 21:14:53;;;;;;;209.00;73.07;;;;;;;6.25;100.00;99685.67;5127211;55;1140763;-79
2024/02/25 21:19:59;;;;;;;267.67;85.53;;;;;;;6.19;100.00;99678.23;5174186;56;1140511;-83
2024/02/25 21:25:06;;;;;;;208.20;71.50;;;;;;;6.05;100.00;99688.89;5182026;55;1140558;-82
2024/02/25 21:30:12;;;;;;;196.80;64.67;;;;;;;5.85;100.00;99684.56;5146168;55;1140567;-79
2024/02/25 21:35:20;;;;;;;165.87;59.67;;;;;;;5.81;100.00;99681.78;5186254;55;1140803;-80
2024/02/25 21:40:25;;;;;;;129.40;50.67;;;;;;;5.70;100.00;99688.74;5184023;54;1140695;-82
2024/02/25 21:45:31;;;;;;;129.40;49.03;;;;;;;5.59;100.00;99684.27;5238285;55;1140931;-79
2024/02/25 21:50:36;;;;;;;125.20;48.30;;;;;;;5.57;100.00;99676.97;5202432;55;1140476;-80
2024/02/25 21:55:42;;;;;;;114.80;44.13;;;;;;;5.54;100.00;99674.08;5069348;56;1140675;-80
2024/02/25 22:00:48;;;;;;;113.87;43.77;;;;;;;5.45;100.00;99676.53;5193874;55;1140633;-80
2024/02/25 22:05:53;;;;;;;114.20;44.43;;;;;;;5.46;100.00;99682.14;5168682;55;1140689;-79
2024/02/25 22:10:59;;;;;;;99.97;42.07;;;;;;;5.45;100.00;99680.45;5162324;55;1143132;-81
2024/02/25 22:16:05;;;;;;;109.97;42.20;;;;;;;5.47;100.00;99679.41;5225999;55;1141078;-82
2024/02/25 22:21:10;;;;;;;102.27;44.63;;;;;;;5.43;100.00;99683.66;5183970;55;1140715;-82
2024/02/25 22:26:16;;;;;;;88.13;39.57;;;;;;;5.41;100.00;99690.78;5202598;55;1141485;-82
2024/02/25 22:31:21;;;;;;;75.12;33.67;;;;;;;5.30;100.00;99688.92;5192393;54;1232821;-79
2024/02/25 22:36:27;;;;;;;62.13;30.37;;;;;;;5.20;100.00;99683.92;5209371;55;1138990;-80
2024/02/25 22:41:35;;;;;;;46.53;23.97;;;;;;;5.07;100.00;99691.79;5180122;55;1139501;-80
2024/02/25 22:46:40;;;;;;;42.83;24.13;;;;;;;4.98;100.00;99691.12;5122236;55;1139005;-81